sensor_id;sensor_type;location;lat;lon;timestamp;pressure;altitude;pressure_sealevel;temperature;humidity
71567;BME280;59403;47.456;19.120;2023-04-25T00:02:09;99321.13;;;12.11;100.00
71567;BME280;59403;47.456;19.120;2023-04-25T00:04:36;99321.72;;;12.13;100.00
71567;BME280;59403;47.456;19.120;2023-04-25T00:07:03;99312.12;;;12.12;100.00
71567;BME280;59403;47.456;19.120;2023-04-25T00:09:31;99317.19;;;12.07;100.00
71567;BME280;59403;47.456;19.120;2023-04-25T00:11:58;99321.72;;;12.13;100.00
71567;BME280;59403;47.456;19.120;2023-04-25T00:14:26;99314.75;;;12.05;100.00
71567;BME280;59403;47.456;19.120;2023-04-25T00:16:54;99310.88;;;12.08;100.00
71567;BME280;59403;47.456;19.120;2023-04-25T00:19:21;99311.66;;;12.02;100.00
71567;BME280;59403;47.456;19.120;2023-04-25T00:21:48;99315.31;;;12.01;100.00
71567;BME280;59403;47.456;19.120;2023-04-25T00:24:15;99308.75;;;11.97;100.00
71567;BME280;59403;47.456;19.120;2023-04-25T00:26:44;99308.16;;;12.01;100.00
71567;BME280;59403;47.456;19.120;2023-04-25T00:29:11;99306.47;;;11.94;100.00
71567;BME280;59403;47.456;19.120;2023-04-25T00:31:37;99297.13;;;11.98;99.35
71567;BME280;59403;47.456;19.120;2023-04-25T00:34:06;99302.63;;;11.96;99.60
71567;BME280;59403;47.456;19.120;2023-04-25T00:36:33;99301.44;;;11.99;99.08
71567;BME280;59403;47.456;19.120;2023-04-25T00:39:00;99298.94;;;11.97;99.13
71567;BME280;59403;47.456;19.120;2023-04-25T00:41:30;99293.19;;;11.94;99.79
71567;BME280;59403;47.456;19.120;2023-04-25T00:43:59;99296.69;;;11.94;99.61
71567;BME280;59403;47.456;19.120;2023-04-25T00:46:26;99286.50;;;11.98;100.00
71567;BME280;59403;47.456;19.120;2023-04-25T00:48:52;99297.13;;;11.98;98.86
71567;BME280;59403;47.456;19.120;2023-04-25T00:51:20;99280.53;;;11.89;100.00
71567;BME280;59403;47.456;19.120;2023-04-25T00:53:48;99286.84;;;11.88;99.88
71567;BME280;59403;47.456;19.120;2023-04-25T00:56:16;99276.84;;;11.90;99.91
71567;BME280;59403;47.456;19.120;2023-04-25T00:58:43;99282.59;;;11.94;99.34
71567;BME280;59403;47.456;19.120;2023-04-25T01:04:46;99277.25;;;11.87;100.00
71567;BME280;59403;47.456;19.120;2023-04-25T01:07:14;99276.28;;;11.95;100.00
71567;BME280;59403;47.456;19.120;2023-04-25T01:09:42;99263.66;;;11.97;99.19
71567;BME280;59403;47.456;19.120;2023-04-25T01:12:09;99269.72;;;11.91;98.97
71567;BME280;59403;47.456;19.120;2023-04-25T01:14:37;99267.03;;;11.84;100.00
71567;BME280;59403;47.456;19.120;2023-04-25T01:17:04;99273.84;;;11.93;99.25
71567;BME280;59403;47.456;19.120;2023-04-25T01:19:33;99275.84;;;11.91;98.32
71567;BME280;59403;47.456;19.120;2023-04-25T01:22:01;99273.00;;;11.93;97.34
71567;BME280;59403;47.456;19.120;2023-04-25T01:24:29;99275.66;;;11.93;97.75
71567;BME280;59403;47.456;19.120;2023-04-25T01:27:00;99268.87;;;11.90;98.19
71567;BME280;59403;47.456;19.120;2023-04-25T01:29:28;99267.25;;;11.89;96.87
71567;BME280;59403;47.456;19.120;2023-04-25T01:31:55;99270.13;;;11.88;96.96
71567;BME280;59403;47.456;19.120;2023-04-25T01:34:23;99275.81;;;11.85;99.23
71567;BME280;59403;47.456;19.120;2023-04-25T01:36:51;99278.25;;;11.86;98.39
71567;BME280;59403;47.456;19.120;2023-04-25T01:39:20;99263.59;;;11.90;97.34
71567;BME280;59403;47.456;19.120;2023-04-25T01:41:50;99259.47;;;11.81;98.59
71567;BME280;59403;47.456;19.120;2023-04-25T01:44:17;99283.78;;;11.85;98.10
71567;BME280;59403;47.456;19.120;2023-04-25T01:46:44;99264.13;;;11.79;97.26
71567;BME280;59403;47.456;19.120;2023-04-25T01:49:11;99265.50;;;11.75;98.42
71567;BME280;59403;47.456;19.120;2023-04-25T01:51:38;99266.97;;;11.78;98.90
71567;BME280;59403;47.456;19.120;2023-04-25T01:54:05;99273.88;;;11.72;97.81
71567;BME280;59403;47.456;19.120;2023-04-25T01:56:36;99272.59;;;11.68;98.58
71567;BME280;59403;47.456;19.120;2023-04-25T01:59:04;99266.31;;;11.69;98.90
71567;BME280;59403;47.456;19.120;2023-04-25T02:01:31;99266.84;;;11.65;98.99
71567;BME280;59403;47.456;19.120;2023-04-25T02:03:58;99263.38;;;11.64;100.00
71567;BME280;59403;47.456;19.120;2023-04-25T02:06:26;99258.22;;;11.63;99.19
71567;BME280;59403;47.456;19.120;2023-04-25T02:08:54;99255.78;;;11.61;99.24
71567;BME280;59403;47.456;19.120;2023-04-25T02:11:21;99264.13;;;11.58;100.00
71567;BME280;59403;47.456;19.120;2023-04-25T02:13:49;99259.84;;;11.57;99.74
71567;BME280;59403;47.456;19.120;2023-04-25T02:16:16;99262.31;;;11.59;98.48
71567;BME280;59403;47.456;19.120;2023-04-25T02:18:44;99258.62;;;11.60;97.76
71567;BME280;59403;47.456;19.120;2023-04-25T02:21:11;99260.09;;;11.62;98.58
71567;BME280;59403;47.456;19.120;2023-04-25T02:23:38;99256.59;;;11.62;97.46
71567;BME280;59403;47.456;19.120;2023-04-25T02:26:05;99258.81;;;11.58;96.79
71567;BME280;59403;47.456;19.120;2023-04-25T02:28:32;99261.72;;;11.63;96.38
71567;BME280;59403;47.456;19.120;2023-04-25T02:31:00;99262.91;;;11.61;96.66
71567;BME280;59403;47.456;19.120;2023-04-25T02:33:27;99266.03;;;11.64;96.03
71567;BME280;59403;47.456;19.120;2023-04-25T02:35:54;99263.09;;;11.59;96.18
71567;BME280;59403;47.456;19.120;2023-04-25T02:38:21;99272.72;;;11.60;96.98
71567;BME280;59403;47.456;19.120;2023-04-25T02:40:48;99260.84;;;11.56;96.11
71567;BME280;59403;47.456;19.120;2023-04-25T02:43:15;99263.09;;;11.59;96.50
71567;BME280;59403;47.456;19.120;2023-04-25T02:45:42;99268.78;;;11.56;96.85
71567;BME280;59403;47.456;19.120;2023-04-25T02:48:10;99254.53;;;11.57;95.54
71567;BME280;59403;47.456;19.120;2023-04-25T02:50:37;99254.34;;;11.59;96.52
71567;BME280;59403;47.456;19.120;2023-04-25T02:53:04;99257.53;;;11.54;95.59
71567;BME280;59403;47.456;19.120;2023-04-25T02:55:31;99255.34;;;11.58;94.62
71567;BME280;59403;47.456;19.120;2023-04-25T02:57:58;99258.56;;;11.53;95.16
71567;BME280;59403;47.456;19.120;2023-04-25T03:00:25;99258.38;;;11.55;95.26
71567;BME280;59403;47.456;19.120;2023-04-25T03:02:52;99247.56;;;11.56;92.77
71567;BME280;59403;47.456;19.120;2023-04-25T03:05:20;99252.88;;;11.56;93.24
71567;BME280;59403;47.456;19.120;2023-04-25T03:07:47;99251.25;;;11.55;93.38
71567;BME280;59403;47.456;19.120;2023-04-25T03:10:14;99246.16;;;11.54;91.57
71567;BME280;59403;47.456;19.120;2023-04-25T03:12:41;99249.59;;;11.54;90.82
71567;BME280;59403;47.456;19.120;2023-04-25T03:15:08;99247.97;;;11.53;90.98
71567;BME280;59403;47.456;19.120;2023-04-25T03:17:35;99246.69;;;11.49;91.42
71567;BME280;59403;47.456;19.120;2023-04-25T03:20:03;99251.63;;;11.52;91.27
71567;BME280;59403;47.456;19.120;2023-04-25T03:22:32;99261.34;;;11.45;91.37
71567;BME280;59403;47.456;19.120;2023-04-25T03:24:59;99240.75;;;11.47;91.69
71567;BME280;59403;47.456;19.120;2023-04-25T03:27:26;99246.44;;;11.44;92.80
71567;BME280;59403;47.456;19.120;2023-04-25T03:29:53;99241.53;;;11.41;93.25
71567;BME280;59403;47.456;19.120;2023-04-25T03:32:19;99254.16;;;11.39;93.11
71567;BME280;59403;47.456;19.120;2023-04-25T03:34:46;99246.78;;;11.34;94.27
71567;BME280;59403;47.456;19.120;2023-04-25T03:37:13;99239.81;;;11.33;93.38
71567;BME280;59403;47.456;19.120;2023-04-25T03:39:41;99258.56;;;11.32;93.96
71567;BME280;59403;47.456;19.120;2023-04-25T03:42:08;99245.72;;;11.29;93.63
71567;BME280;59403;47.456;19.120;2023-04-25T03:44:35;99257.50;;;11.26;93.67
71567;BME280;59403;47.456;19.120;2023-04-25T03:47:02;99248.91;;;11.24;93.86
71567;BME280;59403;47.456;19.120;2023-04-25T03:49:29;99255.22;;;11.23;93.46
71567;BME280;59403;47.456;19.120;2023-04-25T03:51:56;99260.91;;;11.20;93.63
71567;BME280;59403;47.456;19.120;2023-04-25T03:54:23;99246.41;;;11.16;93.05
71567;BME280;59403;47.456;19.120;2023-04-25T03:56:51;99255.16;;;11.17;92.40
71567;BME280;59403;47.456;19.120;2023-04-25T03:59:18;99257.38;;;11.13;92.43
71567;BME280;59403;47.456;19.120;2023-04-25T04:01:45;99264.50;;;11.13;93.05
71567;BME280;59403;47.456;19.120;2023-04-25T04:04:12;99263.78;;;11.04;92.75
71567;BME280;59403;47.456;19.120;2023-04-25T04:06:39;99259.59;;;11.10;93.50
71567;BME280;59403;47.456;19.120;2023-04-25T04:09:06;99275.47;;;11.10;93.14
71567;BME280;59403;47.456;19.120;2023-04-25T04:11:36;99265.22;;;11.07;94.47
71567;BME280;59403;47.456;19.120;2023-04-25T04:14:05;99260.75;;;11.07;94.37
71567;BME280;59403;47.456;19.120;2023-04-25T04:16:32;99255.03;;;11.04;94.42
71567;BME280;59403;47.456;19.120;2023-04-25T04:18:59;99272.19;;;11.08;92.74
71567;BME280;59403;47.456;19.120;2023-04-25T04:21:26;99274.66;;;11.09;93.16
71567;BME280;59403;47.456;19.120;2023-04-25T04:23:53;99267.09;;;11.06;92.83
71567;BME280;59403;47.456;19.120;2023-04-25T04:26:20;99275.22;;;11.05;93.30
71567;BME280;59403;47.456;19.120;2023-04-25T04:28:49;99275.81;;;11.07;93.87
71567;BME280;59403;47.456;19.120;2023-04-25T04:31:17;99285.25;;;11.09;95.96
71567;BME280;59403;47.456;19.120;2023-04-25T04:33:44;99287.19;;;11.01;95.82
71567;BME280;59403;47.456;19.120;2023-04-25T04:36:12;99273.62;;;10.89;96.98
71567;BME280;59403;47.456;19.120;2023-04-25T04:38:39;99285.78;;;10.84;97.49
71567;BME280;59403;47.456;19.120;2023-04-25T04:41:06;99294.44;;;10.78;98.93
71567;BME280;59403;47.456;19.120;2023-04-25T04:43:34;99284.69;;;10.78;100.00
71567;BME280;59403;47.456;19.120;2023-04-25T04:46:01;99282.03;;;10.78;99.78
71567;BME280;59403;47.456;19.120;2023-04-25T04:48:31;99288.97;;;10.79;98.96
71567;BME280;59403;47.456;19.120;2023-04-25T04:50:59;99297.53;;;10.81;99.55
71567;BME280;59403;47.456;19.120;2023-04-25T04:53:27;99286.03;;;10.74;98.57
71567;BME280;59403;47.456;19.120;2023-04-25T04:55:54;99290.34;;;10.75;99.14
71567;BME280;59403;47.456;19.120;2023-04-25T04:58:21;99283.78;;;10.71;99.93
71567;BME280;59403;47.456;19.120;2023-04-25T05:00:48;99286.03;;;10.74;97.81
71567;BME280;59403;47.456;19.120;2023-04-25T05:03:15;99284.87;;;10.77;98.89
71567;BME280;59403;47.456;19.120;2023-04-25T05:05:43;99290.81;;;10.79;100.00
71567;BME280;59403;47.456;19.120;2023-04-25T05:08:11;99289.06;;;10.71;100.00
71567;BME280;59403;47.456;19.120;2023-04-25T05:10:38;99283.50;;;10.66;100.00
71567;BME280;59403;47.456;19.120;2023-04-25T05:13:05;99286.69;;;10.62;100.00
71567;BME280;59403;47.456;19.120;2023-04-25T05:15:32;99301.78;;;10.47;100.00
71567;BME280;59403;47.456;19.120;2023-04-25T05:17:58;99293.19;;;10.45;100.00
71567;BME280;59403;47.456;19.120;2023-04-25T05:20:25;99279.22;;;10.36;100.00
71567;BME280;59403;47.456;19.120;2023-04-25T05:22:54;99291.38;;;10.45;100.00
71567;BME280;59403;47.456;19.120;2023-04-25T05:25:20;99289.91;;;10.43;100.00
71567;BME280;59403;47.456;19.120;2023-04-25T05:27:47;99283.69;;;10.36;100.00
71567;BME280;59403;47.456;19.120;2023-04-25T05:30:16;99297.41;;;10.24;100.00
71567;BME280;59403;47.456;19.120;2023-04-25T05:32:43;99298.56;;;10.22;100.00
71567;BME280;59403;47.456;19.120;2023-04-25T05:35:10;99297.13;;;10.19;100.00
71567;BME280;59403;47.456;19.120;2023-04-25T05:37:37;99285.97;;;10.09;100.00
71567;BME280;59403;47.456;19.120;2023-04-25T05:40:07;99304.72;;;10.00;100.00
71567;BME280;59403;47.456;19.120;2023-04-25T05:42:34;99292.09;;;10.10;100.00
71567;BME280;59403;47.456;19.120;2023-04-25T05:45:01;99288.56;;;9.95;100.00
71567;BME280;59403;47.456;19.120;2023-04-25T05:47:28;99291.91;;;9.89;100.00
71567;BME280;59403;47.456;19.120;2023-04-25T05:49:55;99291.91;;;9.89;100.00
71567;BME280;59403;47.456;19.120;2023-04-25T05:52:22;99296.94;;;9.84;100.00
71567;BME280;59403;47.456;19.120;2023-04-25T05:54:49;99305.41;;;9.79;100.00
71567;BME280;59403;47.456;19.120;2023-04-25T05:57:22;99298.00;;;9.75;100.00
71567;BME280;59403;47.456;19.120;2023-04-25T05:59:49;99305.81;;;9.68;100.00
71567;BME280;59403;47.456;19.120;2023-04-25T06:02:16;99307.13;;;9.72;100.00
71567;BME280;59403;47.456;19.120;2023-04-25T06:04:43;99310.41;;;9.74;100.00
71567;BME280;59403;47.456;19.120;2023-04-25T06:07:10;99307.59;;;9.76;100.00
71567;BME280;59403;47.456;19.120;2023-04-25T06:09:37;99312.97;;;9.82;100.00
71567;BME280;59403;47.456;19.120;2023-04-25T06:12:05;99311.06;;;9.76;100.00
71567;BME280;59403;47.456;19.120;2023-04-25T06:14:33;99315.34;;;9.77;100.00
71567;BME280;59403;47.456;19.120;2023-04-25T06:17:00;99305.81;;;9.68;100.00
71567;BME280;59403;47.456;19.120;2023-04-25T06:19:31;99312.22;;;9.74;100.00
71567;BME280;59403;47.456;19.120;2023-04-25T06:21:59;99320.81;;;9.76;100.00
71567;BME280;59403;47.456;19.120;2023-04-25T06:24:25;99322.31;;;9.93;100.00
71567;BME280;59403;47.456;19.120;2023-04-25T06:26:53;99318.88;;;10.07;100.00
71567;BME280;59403;47.456;19.120;2023-04-25T06:29:20;99321.59;;;9.99;100.00
71567;BME280;59403;47.456;19.120;2023-04-25T06:31:48;99322.31;;;9.93;100.00
71567;BME280;59403;47.456;19.120;2023-04-25T06:34:15;99324.06;;;10.00;100.00
71567;BME280;59403;47.456;19.120;2023-04-25T06:36:42;99324.72;;;10.02;100.00
71567;BME280;59403;47.456;19.120;2023-04-25T06:39:10;99327.63;;;10.07;100.00
71567;BME280;59403;47.456;19.120;2023-04-25T06:41:37;99327.31;;;10.10;100.00
71567;BME280;59403;47.456;19.120;2023-04-25T06:44:04;99324.09;;;10.15;100.00
71567;BME280;59403;47.456;19.120;2023-04-25T06:46:31;99324.84;;;10.23;100.00
71567;BME280;59403;47.456;19.120;2023-04-25T06:48:59;99322.50;;;10.43;100.00
71567;BME280;59403;47.456;19.120;2023-04-25T06:51:26;99318.94;;;10.36;100.00
71567;BME280;59403;47.456;19.120;2023-04-25T06:53:55;99329.00;;;10.41;100.00
71567;BME280;59403;47.456;19.120;2023-04-25T06:56:22;99329.00;;;10.41;100.00
71567;BME280;59403;47.456;19.120;2023-04-25T06:58:49;99330.78;;;10.55;100.00
71567;BME280;59403;47.456;19.120;2023-04-25T07:01:16;99333.81;;;10.66;100.00
71567;BME280;59403;47.456;19.120;2023-04-25T07:03:42;99331.63;;;10.70;100.00
71567;BME280;59403;47.456;19.120;2023-04-25T07:06:15;99332.34;;;10.93;100.00
71567;BME280;59403;47.456;19.120;2023-04-25T07:08:42;99335.88;;;11.00;100.00
71567;BME280;59403;47.456;19.120;2023-04-25T07:11:09;99331.50;;;10.92;100.00
71567;BME280;59403;47.456;19.120;2023-04-25T07:13:36;99334.81;;;10.94;100.00
71567;BME280;59403;47.456;19.120;2023-04-25T07:16:03;99331.41;;;11.00;100.00
71567;BME280;59403;47.456;19.120;2023-04-25T07:18:30;99326.16;;;11.07;100.00
71567;BME280;59403;47.456;19.120;2023-04-25T07:20:57;99312.41;;;10.97;100.00
71567;BME280;59403;47.456;19.120;2023-04-25T07:23:26;99337.53;;;10.86;100.00
71567;BME280;59403;47.456;19.120;2023-04-25T07:25:52;99338.91;;;10.97;100.00
71567;BME280;59403;47.456;19.120;2023-04-25T07:28:19;99329.84;;;10.91;100.00
71567;BME280;59403;47.456;19.120;2023-04-25T07:30:49;99335.41;;;10.96;100.00
71567;BME280;59403;47.456;19.120;2023-04-25T07:33:18;99332.75;;;11.11;100.00
71567;BME280;59403;47.456;19.120;2023-04-25T07:35:46;99333.97;;;11.08;100.00
71567;BME280;59403;47.456;19.120;2023-04-25T07:38:13;99332.28;;;11.22;100.00
71567;BME280;59403;47.456;19.120;2023-04-25T07:40:41;99344.56;;;11.29;100.00
71567;BME280;59403;47.456;19.120;2023-04-25T07:43:08;99337.78;;;11.20;100.00
71567;BME280;59403;47.456;19.120;2023-04-25T07:45:55;99339.91;;;11.31;100.00
71567;BME280;59403;47.456;19.120;2023-04-25T07:48:25;99345.03;;;11.33;100.00
71567;BME280;59403;47.456;19.120;2023-04-25T07:50:52;99343.72;;;11.43;100.00
71567;BME280;59403;47.456;19.120;2023-04-25T07:53:19;99344.31;;;11.60;100.00
71567;BME280;59403;47.456;19.120;2023-04-25T07:55:50;99344.06;;;11.55;100.00
71567;BME280;59403;47.456;19.120;2023-04-25T07:58:16;99343.72;;;11.79;100.00
71567;BME280;59403;47.456;19.120;2023-04-25T08:00:46;99340.78;;;11.95;100.00
71567;BME280;59403;47.456;19.120;2023-04-25T08:03:13;99334.50;;;12.03;99.67
71567;BME280;59403;47.456;19.120;2023-04-25T08:05:40;99344.69;;;11.99;98.48
71567;BME280;59403;47.456;19.120;2023-04-25T08:08:07;99337.59;;;12.06;97.32
71567;BME280;59403;47.456;19.120;2023-04-25T08:10:34;99341.03;;;12.28;97.17
71567;BME280;59403;47.456;19.120;2023-04-25T08:13:02;99337.66;;;12.40;98.19
71567;BME280;59403;47.456;19.120;2023-04-25T08:15:29;99347.31;;;12.48;96.75
71567;BME280;59403;47.456;19.120;2023-04-25T08:17:56;99342.44;;;12.58;96.17
71567;BME280;59403;47.456;19.120;2023-04-25T08:20:23;99338.13;;;12.50;94.08
71567;BME280;59403;47.456;19.120;2023-04-25T08:22:50;99337.84;;;12.73;94.38
71567;BME280;59403;47.456;19.120;2023-04-25T08:25:17;99344.28;;;12.92;91.83
71567;BME280;59403;47.456;19.120;2023-04-25T08:27:44;99339.59;;;12.94;92.40
71567;BME280;59403;47.456;19.120;2023-04-25T08:36:31;99338.28;;;12.77;92.86
71567;BME280;59403;47.456;19.120;2023-04-25T08:39:01;99347.44;;;12.68;91.86
71567;BME280;59403;47.456;19.120;2023-04-25T08:41:40;99334.69;;;12.56;89.92
71567;BME280;59403;47.456;19.120;2023-04-25T08:44:14;99346.19;;;12.70;91.22
71567;BME280;59403;47.456;19.120;2023-04-25T08:46:51;99342.53;;;13.05;91.08
71567;BME280;59403;47.456;19.120;2023-04-25T08:49:34;99345.97;;;13.46;89.17
71567;BME280;59403;47.456;19.120;2023-04-25T08:52:04;99361.97;;;13.12;86.15
71567;BME280;59403;47.456;19.120;2023-04-25T08:54:32;99359.31;;;13.06;84.40
71567;BME280;59403;47.456;19.120;2023-04-25T08:57:01;99366.09;;;12.81;86.73
71567;BME280;59403;47.456;19.120;2023-04-25T08:59:29;99354.78;;;12.66;86.05
71567;BME280;59403;47.456;19.120;2023-04-25T09:01:57;99370.25;;;12.96;86.50
71567;BME280;59403;47.456;19.120;2023-04-25T09:04:24;99369.41;;;13.23;87.06
71567;BME280;59403;47.456;19.120;2023-04-25T09:07:14;99362.81;;;13.13;85.98
71567;BME280;59403;47.456;19.120;2023-04-25T09:09:44;99364.25;;;13.15;87.68
71567;BME280;59403;47.456;19.120;2023-04-25T09:19:00;99357.91;;;13.96;82.36
71567;BME280;59403;47.456;19.120;2023-04-25T09:21:34;99372.00;;;13.77;80.27
71567;BME280;59403;47.456;19.120;2023-04-25T09:24:07;99359.53;;;13.97;80.84
71567;BME280;59403;47.456;19.120;2023-04-25T09:26:34;99363.44;;;13.95;79.71
71567;BME280;59403;47.456;19.120;2023-04-25T09:29:05;99369.56;;;13.89;79.86
71567;BME280;59403;47.456;19.120;2023-04-25T09:31:33;99358.09;;;13.88;79.12
71567;BME280;59403;47.456;19.120;2023-04-25T09:34:00;99355.63;;;13.74;80.37
71567;BME280;59403;47.456;19.120;2023-04-25T09:36:27;99362.59;;;14.01;79.80
71567;BME280;59403;47.456;19.120;2023-04-25T09:38:55;99357.69;;;13.91;79.60
71567;BME280;59403;47.456;19.120;2023-04-25T09:41:24;99348.47;;;14.13;80.61
71567;BME280;59403;47.456;19.120;2023-04-25T09:43:51;99346.84;;;14.12;78.05
71567;BME280;59403;47.456;19.120;2023-04-25T09:46:18;99351.16;;;14.46;78.51
71567;BME280;59403;47.456;19.120;2023-04-25T09:48:49;99346.63;;;14.01;78.57
71567;BME280;59403;47.456;19.120;2023-04-25T09:51:16;99349.91;;;14.09;79.86
71567;BME280;59403;47.456;19.120;2023-04-25T09:53:45;99351.75;;;14.22;78.42
71567;BME280;59403;47.456;19.120;2023-04-25T09:56:15;99362.41;;;14.09;78.43
71567;BME280;59403;47.456;19.120;2023-04-25T09:58:43;99354.03;;;14.38;77.01
71567;BME280;59403;47.456;19.120;2023-04-25T10:01:11;99354.22;;;14.49;76.76
71567;BME280;59403;47.456;19.120;2023-04-25T10:03:39;99352.38;;;14.50;76.35
71567;BME280;59403;47.456;19.120;2023-04-25T10:06:08;99348.69;;;14.57;76.21
71567;BME280;59403;47.456;19.120;2023-04-25T10:08:36;99345.22;;;14.37;76.17
71567;BME280;59403;47.456;19.120;2023-04-25T10:11:05;99350.28;;;14.78;75.77
71567;BME280;59403;47.456;19.120;2023-04-25T10:13:34;99342.47;;;15.34;77.51
71567;BME280;59403;47.456;19.120;2023-04-25T10:16:04;99355.53;;;15.04;71.86
71567;BME280;59403;47.456;19.120;2023-04-25T10:18:32;99350.94;;;14.54;72.75
71567;BME280;59403;47.456;19.120;2023-04-25T10:21:01;99350.28;;;14.65;73.61
71567;BME280;59403;47.456;19.120;2023-04-25T10:23:30;99353.63;;;14.41;73.85
71567;BME280;59403;47.456;19.120;2023-04-25T10:25:57;99349.72;;;14.24;72.88
71567;BME280;59403;47.456;19.120;2023-04-25T10:28:25;99354.84;;;14.32;73.87
71567;BME280;59403;47.456;19.120;2023-04-25T10:30:57;99350.34;;;14.19;73.18
71567;BME280;59403;47.456;19.120;2023-04-25T10:33:35;99348.88;;;13.97;72.42
71567;BME280;59403;47.456;19.120;2023-04-25T10:36:10;99344.56;;;13.83;72.52
71567;BME280;59403;47.456;19.120;2023-04-25T10:38:37;99348.25;;;13.76;72.70
71567;BME280;59403;47.456;19.120;2023-04-25T10:41:05;99342.72;;;13.90;72.77
71567;BME280;59403;47.456;19.120;2023-04-25T10:43:37;99340.91;;;14.04;74.11
71567;BME280;59403;47.456;19.120;2023-04-25T10:46:15;99340.09;;;14.10;71.26
71567;BME280;59403;47.456;19.120;2023-04-25T10:48:49;99364.88;;;14.49;70.22
71567;BME280;59403;47.456;19.120;2023-04-25T10:51:18;99357.72;;;14.30;69.32
71567;BME280;59403;47.456;19.120;2023-04-25T10:53:45;99346.63;;;14.53;71.26
71567;BME280;59403;47.456;19.120;2023-04-25T10:56:17;99353.94;;;14.77;69.24
71567;BME280;59403;47.456;19.120;2023-04-25T10:58:46;99360.13;;;14.71;69.96
71567;BME280;59403;47.456;19.120;2023-04-25T11:01:13;99358.31;;;14.58;67.09
71567;BME280;59403;47.456;19.120;2023-04-25T11:03:42;99360.94;;;14.78;70.60
71567;BME280;59403;47.456;19.120;2023-04-25T11:06:21;99359.13;;;14.65;69.78
71567;BME280;59403;47.456;19.120;2023-04-25T11:08:50;99363.22;;;14.55;68.89
71567;BME280;59403;47.456;19.120;2023-04-25T11:11:17;99366.53;;;14.31;68.04
71567;BME280;59403;47.456;19.120;2023-04-25T11:13:47;99374.28;;;14.58;68.35
71567;BME280;59403;47.456;19.120;2023-04-25T11:16:14;99361.34;;;14.82;68.64
71567;BME280;59403;47.456;19.120;2023-04-25T11:18:42;99369.81;;;15.23;66.67
71567;BME280;59403;47.456;19.120;2023-04-25T11:21:09;99364.28;;;15.18;64.78
71567;BME280;59403;47.456;19.120;2023-04-25T11:23:37;99371.47;;;15.17;63.93
71567;BME280;59403;47.456;19.120;2023-04-25T11:26:04;99369.53;;;14.73;64.03
71567;BME280;59403;47.456;19.120;2023-04-25T11:28:31;99381.13;;;15.12;64.76
71567;BME280;59403;47.456;19.120;2023-04-25T11:30:58;99385.94;;;15.47;64.96
71567;BME280;59403;47.456;19.120;2023-04-25T11:33:25;99376.41;;;15.64;63.66
71567;BME280;59403;47.456;19.120;2023-04-25T11:35:53;99382.09;;;15.74;60.78
71567;BME280;59403;47.456;19.120;2023-04-25T11:38:22;99377.94;;;15.34;60.66
71567;BME280;59403;47.456;19.120;2023-04-25T11:40:53;99381.53;;;15.15;61.23
71567;BME280;59403;47.456;19.120;2023-04-25T11:43:20;99376.69;;;15.50;60.23
71567;BME280;59403;47.456;19.120;2023-04-25T11:45:48;99371.56;;;15.48;60.51
71567;BME280;59403;47.456;19.120;2023-04-25T11:48:16;99386.38;;;14.67;63.48
71567;BME280;59403;47.456;19.120;2023-04-25T11:50:43;99378.44;;;14.35;61.98
71567;BME280;59403;47.456;19.120;2023-04-25T11:53:11;99387.84;;;14.50;63.99
71567;BME280;59403;47.456;19.120;2023-04-25T11:55:38;99385.38;;;14.42;65.67
71567;BME280;59403;47.456;19.120;2023-04-25T11:58:06;99381.69;;;14.50;65.24
71567;BME280;59403;47.456;19.120;2023-04-25T12:00:34;99396.59;;;14.84;66.89
71567;BME280;59403;47.456;19.120;2023-04-25T12:03:01;99395.81;;;14.76;65.28
71567;BME280;59403;47.456;19.120;2023-04-25T12:05:30;99389.25;;;14.53;64.53
71567;BME280;59403;47.456;19.120;2023-04-25T12:08:09;99399.53;;;14.56;62.42
71567;BME280;59403;47.456;19.120;2023-04-25T12:10:37;99403.72;;;14.96;64.43
71567;BME280;59403;47.456;19.120;2023-04-25T12:13:19;99400.47;;;15.01;63.16
71567;BME280;59403;47.456;19.120;2023-04-25T12:15:46;99410.09;;;14.95;63.86
71567;BME280;59403;47.456;19.120;2023-04-25T12:18:14;99414.25;;;14.78;60.43
71567;BME280;59403;47.456;19.120;2023-04-25T12:20:41;99388.41;;;14.72;62.22
71567;BME280;59403;47.456;19.120;2023-04-25T12:23:08;99400.94;;;14.65;62.89
71567;BME280;59403;47.456;19.120;2023-04-25T12:25:37;99391.47;;;14.89;62.59
71567;BME280;59403;47.456;19.120;2023-04-25T12:28:13;99389.72;;;15.71;60.28
71567;BME280;59403;47.456;19.120;2023-04-25T12:30:58;99389.69;;;16.09;57.97
71567;BME280;59403;47.456;19.120;2023-04-25T12:33:27;99402.09;;;16.21;56.89
71567;BME280;59403;47.456;19.120;2023-04-25T12:35:54;99399.75;;;16.62;54.58
71567;BME280;59403;47.456;19.120;2023-04-25T12:38:22;99396.91;;;16.57;54.64
71567;BME280;59403;47.456;19.120;2023-04-25T12:40:49;99385.91;;;16.41;53.81
71567;BME280;59403;47.456;19.120;2023-04-25T12:43:16;99374.28;;;16.78;55.92
71567;BME280;59403;47.456;19.120;2023-04-25T12:45:44;99379.09;;;16.45;53.91
71567;BME280;59403;47.456;19.120;2023-04-25T12:48:12;99380.94;;;16.44;52.77
71567;BME280;59403;47.456;19.120;2023-04-25T12:50:39;99369.06;;;16.40;52.84
71567;BME280;59403;47.456;19.120;2023-04-25T12:53:06;99368.47;;;16.63;52.19
71567;BME280;59403;47.456;19.120;2023-04-25T12:55:33;99376.97;;;16.96;52.03
71567;BME280;59403;47.456;19.120;2023-04-25T12:58:00;99373.25;;;16.79;49.28
71567;BME280;59403;47.456;19.120;2023-04-25T13:00:28;99369.44;;;16.68;50.17
71567;BME280;59403;47.456;19.120;2023-04-25T13:02:55;99371.09;;;16.87;50.37
71567;BME280;59403;47.456;19.120;2023-04-25T13:05:23;99376.66;;;16.86;48.46
71567;BME280;59403;47.456;19.120;2023-04-25T13:07:50;99377.94;;;16.83;49.03
71567;BME280;59403;47.456;19.120;2023-04-25T13:10:17;99375.63;;;17.05;48.90